sensor_id;sensor_type;location;lat;lon;timestamp;temperature;humidity
14252;DHT22;7210;51.502;10.722;2023-05-02T00:01:01;10.60;99.90
14252;DHT22;7210;51.502;10.722;2023-05-02T00:03:29;10.60;99.90
14252;DHT22;7210;51.502;10.722;2023-05-02T00:05:58;10.60;99.90
14252;DHT22;7210;51.502;10.722;2023-05-02T00:08:25;10.60;99.90
14252;DHT22;7210;51.502;10.722;2023-05-02T00:10:52;10.70;99.90
14252;DHT22;7210;51.502;10.722;2023-05-02T00:13:26;10.70;99.90
14252;DHT22;7210;51.502;10.722;2023-05-02T00:15:53;10.70;99.90
14252;DHT22;7210;51.502;10.722;2023-05-02T00:18:24;10.80;99.90
14252;DHT22;7210;51.502;10.722;2023-05-02T00:20:51;10.70;99.90
14252;DHT22;7210;51.502;10.722;2023-05-02T00:23:19;10.80;99.90
14252;DHT22;7210;51.502;10.722;2023-05-02T00:25:46;10.80;99.90
14252;DHT22;7210;51.502;10.722;2023-05-02T00:28:13;10.80;99.90
14252;DHT22;7210;51.502;10.722;2023-05-02T00:30:45;10.80;99.90
14252;DHT22;7210;51.502;10.722;2023-05-02T00:33:18;10.90;99.90
14252;DHT22;7210;51.502;10.722;2023-05-02T00:35:45;10.90;99.90
14252;DHT22;7210;51.502;10.722;2023-05-02T00:38:13;10.90;99.90
14252;DHT22;7210;51.502;10.722;2023-05-02T00:40:44;10.90;99.90
14252;DHT22;7210;51.502;10.722;2023-05-02T00:43:12;10.80;99.90
14252;DHT22;7210;51.502;10.722;2023-05-02T00:45:41;10.80;99.90
14252;DHT22;7210;51.502;10.722;2023-05-02T00:48:12;10.80;99.90
14252;DHT22;7210;51.502;10.722;2023-05-02T00:50:42;10.80;99.90
14252;DHT22;7210;51.502;10.722;2023-05-02T00:53:09;10.70;99.90
14252;DHT22;7210;51.502;10.722;2023-05-02T00:55:37;10.80;99.90
14252;DHT22;7210;51.502;10.722;2023-05-02T00:58:09;10.80;99.90
14252;DHT22;7210;51.502;10.722;2023-05-02T01:00:52;10.80;99.90
14252;DHT22;7210;51.502;10.722;2023-05-02T01:03:36;10.90;99.90
14252;DHT22;7210;51.502;10.722;2023-05-02T01:06:23;10.80;99.90
14252;DHT22;7210;51.502;10.722;2023-05-02T01:09:05;10.80;99.90
14252;DHT22;7210;51.502;10.722;2023-05-02T01:11:47;10.70;99.90
14252;DHT22;7210;51.502;10.722;2023-05-02T01:14:20;10.70;99.90
14252;DHT22;7210;51.502;10.722;2023-05-02T01:16:51;10.60;99.90
14252;DHT22;7210;51.502;10.722;2023-05-02T01:19:26;10.60;99.90
14252;DHT22;7210;51.502;10.722;2023-05-02T01:21:59;10.70;99.90
14252;DHT22;7210;51.502;10.722;2023-05-02T01:24:34;10.70;99.90
14252;DHT22;7210;51.502;10.722;2023-05-02T01:27:12;10.70;99.90
14252;DHT22;7210;51.502;10.722;2023-05-02T01:29:50;10.70;99.90
14252;DHT22;7210;51.502;10.722;2023-05-02T01:32:20;10.70;99.90
14252;DHT22;7210;51.502;10.722;2023-05-02T01:34:49;10.70;99.90
14252;DHT22;7210;51.502;10.722;2023-05-02T01:37:20;10.60;99.90
14252;DHT22;7210;51.502;10.722;2023-05-02T01:39:51;10.70;99.90
14252;DHT22;7210;51.502;10.722;2023-05-02T01:42:21;10.70;99.90
14252;DHT22;7210;51.502;10.722;2023-05-02T01:44:57;10.80;99.90
14252;DHT22;7210;51.502;10.722;2023-05-02T01:47:26;10.80;99.90
14252;DHT22;7210;51.502;10.722;2023-05-02T01:49:59;10.80;99.90
14252;DHT22;7210;51.502;10.722;2023-05-02T01:52:27;10.70;99.90
14252;DHT22;7210;51.502;10.722;2023-05-02T01:55:01;10.70;99.90
14252;DHT22;7210;51.502;10.722;2023-05-02T01:57:31;10.70;99.90
14252;DHT22;7210;51.502;10.722;2023-05-02T02:00:00;10.70;99.90
14252;DHT22;7210;51.502;10.722;2023-05-02T02:02:40;10.60;99.90
14252;DHT22;7210;51.502;10.722;2023-05-02T02:06:10;10.60;99.90
14252;DHT22;7210;51.502;10.722;2023-05-02T02:08:39;10.60;99.90
14252;DHT22;7210;51.502;10.722;2023-05-02T02:11:09;10.50;99.90
14252;DHT22;7210;51.502;10.722;2023-05-02T02:17:00;10.50;99.90
14252;DHT22;7210;51.502;10.722;2023-05-02T02:19:32;10.40;99.90
14252;DHT22;7210;51.502;10.722;2023-05-02T02:22:03;10.50;99.90
14252;DHT22;7210;51.502;10.722;2023-05-02T02:24:34;10.60;99.90
14252;DHT22;7210;51.502;10.722;2023-05-02T02:27:04;10.50;99.90
14252;DHT22;7210;51.502;10.722;2023-05-02T02:29:32;10.50;99.90
14252;DHT22;7210;51.502;10.722;2023-05-02T02:32:01;10.50;99.90
14252;DHT22;7210;51.502;10.722;2023-05-02T02:34:28;10.40;99.90
14252;DHT22;7210;51.502;10.722;2023-05-02T02:36:59;10.40;99.90
14252;DHT22;7210;51.502;10.722;2023-05-02T02:39:41;10.40;99.90
14252;DHT22;7210;51.502;10.722;2023-05-02T02:42:24;10.30;99.90
14252;DHT22;7210;51.502;10.722;2023-05-02T02:45:12;10.20;99.90
14252;DHT22;7210;51.502;10.722;2023-05-02T02:47:49;10.20;99.90
14252;DHT22;7210;51.502;10.722;2023-05-02T02:50:30;10.10;99.90
14252;DHT22;7210;51.502;10.722;2023-05-02T02:53:04;10.10;99.90
14252;DHT22;7210;51.502;10.722;2023-05-02T02:55:39;10.10;99.90
14252;DHT22;7210;51.502;10.722;2023-05-02T02:58:20;10.10;99.90
14252;DHT22;7210;51.502;10.722;2023-05-02T03:00:58;10.10;99.90
14252;DHT22;7210;51.502;10.722;2023-05-02T03:03:33;10.10;99.90
14252;DHT22;7210;51.502;10.722;2023-05-02T03:06:03;10.00;99.90
14252;DHT22;7210;51.502;10.722;2023-05-02T03:08:38;10.00;99.90
14252;DHT22;7210;51.502;10.722;2023-05-02T03:11:07;10.00;99.90
14252;DHT22;7210;51.502;10.722;2023-05-02T03:13:35;10.00;99.90
14252;DHT22;7210;51.502;10.722;2023-05-02T03:16:30;9.90;99.90
14252;DHT22;7210;51.502;10.722;2023-05-02T03:19:03;9.90;99.90
14252;DHT22;7210;51.502;10.722;2023-05-02T03:21:32;10.00;99.90
14252;DHT22;7210;51.502;10.722;2023-05-02T03:24:06;9.90;99.90
14252;DHT22;7210;51.502;10.722;2023-05-02T03:26:33;9.80;99.90
14252;DHT22;7210;51.502;10.722;2023-05-02T03:29:02;9.90;99.90
14252;DHT22;7210;51.502;10.722;2023-05-02T03:31:35;10.00;99.90
14252;DHT22;7210;51.502;10.722;2023-05-02T03:34:06;10.00;99.90
14252;DHT22;7210;51.502;10.722;2023-05-02T03:36:34;10.00;99.90
14252;DHT22;7210;51.502;10.722;2023-05-02T03:39:02;10.00;99.90
14252;DHT22;7210;51.502;10.722;2023-05-02T03:41:29;10.00;99.90
14252;DHT22;7210;51.502;10.722;2023-05-02T03:44:03;10.00;99.90
14252;DHT22;7210;51.502;10.722;2023-05-02T03:46:31;10.00;99.90
14252;DHT22;7210;51.502;10.722;2023-05-02T03:48:59;10.00;99.90
14252;DHT22;7210;51.502;10.722;2023-05-02T03:51:28;10.10;99.90
14252;DHT22;7210;51.502;10.722;2023-05-02T03:53:57;10.10;99.90
14252;DHT22;7210;51.502;10.722;2023-05-02T03:56:26;10.10;99.90
14252;DHT22;7210;51.502;10.722;2023-05-02T03:59:14;10.10;99.90
14252;DHT22;7210;51.502;10.722;2023-05-02T04:01:42;10.00;99.90
14252;DHT22;7210;51.502;10.722;2023-05-02T04:04:11;10.10;99.90
14252;DHT22;7210;51.502;10.722;2023-05-02T04:06:47;10.10;99.90
14252;DHT22;7210;51.502;10.722;2023-05-02T04:09:15;10.00;99.90
14252;DHT22;7210;51.502;10.722;2023-05-02T04:11:54;10.00;99.90
14252;DHT22;7210;51.502;10.722;2023-05-02T04:14:22;10.00;99.90
14252;DHT22;7210;51.502;10.722;2023-05-02T04:16:51;10.00;99.90
14252;DHT22;7210;51.502;10.722;2023-05-02T04:19:32;10.10;99.90
14252;DHT22;7210;51.502;10.722;2023-05-02T04:22:02;10.10;99.90
14252;DHT22;7210;51.502;10.722;2023-05-02T04:24:33;10.20;99.90
14252;DHT22;7210;51.502;10.722;2023-05-02T04:27:01;10.20;99.90
14252;DHT22;7210;51.502;10.722;2023-05-02T04:29:28;10.30;99.90
14252;DHT22;7210;51.502;10.722;2023-05-02T04:31:57;10.30;99.90
14252;DHT22;7210;51.502;10.722;2023-05-02T04:34:27;10.40;99.90
14252;DHT22;7210;51.502;10.722;2023-05-02T04:36:54;10.30;99.90
14252;DHT22;7210;51.502;10.722;2023-05-02T04:39:25;10.30;99.90
14252;DHT22;7210;51.502;10.722;2023-05-02T04:42:00;10.40;99.90
14252;DHT22;7210;51.502;10.722;2023-05-02T04:44:31;10.40;99.90
14252;DHT22;7210;51.502;10.722;2023-05-02T04:47:06;10.40;99.90
14252;DHT22;7210;51.502;10.722;2023-05-02T04:49:34;10.40;99.90
14252;DHT22;7210;51.502;10.722;2023-05-02T04:52:06;10.40;99.90
14252;DHT22;7210;51.502;10.722;2023-05-02T04:54:35;10.50;99.90
14252;DHT22;7210;51.502;10.722;2023-05-02T04:57:02;10.50;99.90
14252;DHT22;7210;51.502;10.722;2023-05-02T04:59:35;10.50;99.90
14252;DHT22;7210;51.502;10.722;2023-05-02T05:02:03;10.50;99.90
14252;DHT22;7210;51.502;10.722;2023-05-02T05:04:30;10.60;99.90
14252;DHT22;7210;51.502;10.722;2023-05-02T05:06:57;10.60;99.90
14252;DHT22;7210;51.502;10.722;2023-05-02T05:09:27;10.70;99.90
14252;DHT22;7210;51.502;10.722;2023-05-02T05:11:55;10.80;99.90
14252;DHT22;7210;51.502;10.722;2023-05-02T05:14:22;10.80;99.90
14252;DHT22;7210;51.502;10.722;2023-05-02T05:16:53;10.70;99.90
14252;DHT22;7210;51.502;10.722;2023-05-02T05:19:22;10.70;99.90
14252;DHT22;7210;51.502;10.722;2023-05-02T05:21:54;10.70;99.90
14252;DHT22;7210;51.502;10.722;2023-05-02T05:24:22;10.70;99.90
14252;DHT22;7210;51.502;10.722;2023-05-02T05:26:52;10.60;99.90
14252;DHT22;7210;51.502;10.722;2023-05-02T05:29:21;10.70;99.90
14252;DHT22;7210;51.502;10.722;2023-05-02T05:31:54;10.80;99.90
14252;DHT22;7210;51.502;10.722;2023-05-02T05:34:22;10.90;99.90
14252;DHT22;7210;51.502;10.722;2023-05-02T05:36:51;10.80;99.90
14252;DHT22;7210;51.502;10.722;2023-05-02T05:39:24;10.80;99.90
14252;DHT22;7210;51.502;10.722;2023-05-02T05:41:53;10.80;99.90
14252;DHT22;7210;51.502;10.722;2023-05-02T05:44:24;10.80;99.90
14252;DHT22;7210;51.502;10.722;2023-05-02T05:46:51;10.80;99.90
14252;DHT22;7210;51.502;10.722;2023-05-02T05:49:21;10.90;99.90
14252;DHT22;7210;51.502;10.722;2023-05-02T05:51:49;11.10;99.90
14252;DHT22;7210;51.502;10.722;2023-05-02T05:54:17;11.10;99.90
14252;DHT22;7210;51.502;10.722;2023-05-02T05:56:44;11.20;99.90
14252;DHT22;7210;51.502;10.722;2023-05-02T05:59:15;11.20;99.90
14252;DHT22;7210;51.502;10.722;2023-05-02T06:01:44;11.40;99.90
14252;DHT22;7210;51.502;10.722;2023-05-02T06:04:13;11.40;99.90
14252;DHT22;7210;51.502;10.722;2023-05-02T06:06:44;11.60;99.90
14252;DHT22;7210;51.502;10.722;2023-05-02T06:09:12;11.50;99.90
14252;DHT22;7210;51.502;10.722;2023-05-02T06:11:39;11.50;99.90
14252;DHT22;7210;51.502;10.722;2023-05-02T06:14:07;11.70;99.90
14252;DHT22;7210;51.502;10.722;2023-05-02T06:16:34;11.70;99.90
14252;DHT22;7210;51.502;10.722;2023-05-02T06:19:07;11.80;99.90
14252;DHT22;7210;51.502;10.722;2023-05-02T06:21:35;11.90;99.90
14252;DHT22;7210;51.502;10.722;2023-05-02T06:24:06;11.90;99.90
14252;DHT22;7210;51.502;10.722;2023-05-02T06:26:33;12.00;99.90
14252;DHT22;7210;51.502;10.722;2023-05-02T06:29:00;12.10;99.90
14252;DHT22;7210;51.502;10.722;2023-05-02T06:31:28;12.10;99.90
14252;DHT22;7210;51.502;10.722;2023-05-02T06:33:55;12.10;99.90
14252;DHT22;7210;51.502;10.722;2023-05-02T06:36:24;12.10;99.90
14252;DHT22;7210;51.502;10.722;2023-05-02T06:38:54;12.20;99.90
14252;DHT22;7210;51.502;10.722;2023-05-02T06:41:21;12.20;99.90
14252;DHT22;7210;51.502;10.722;2023-05-02T06:43:48;12.20;99.90
14252;DHT22;7210;51.502;10.722;2023-05-02T06:46:15;12.30;99.90
14252;DHT22;7210;51.502;10.722;2023-05-02T06:48:43;12.30;99.90
14252;DHT22;7210;51.502;10.722;2023-05-02T06:51:13;12.40;99.90
14252;DHT22;7210;51.502;10.722;2023-05-02T06:53:42;12.50;99.90
14252;DHT22;7210;51.502;10.722;2023-05-02T06:56:09;12.50;1.00
14252;DHT22;7210;51.502;10.722;2023-05-02T06:58:36;12.50;1.00
14252;DHT22;7210;51.502;10.722;2023-05-02T07:01:03;12.50;1.00
14252;DHT22;7210;51.502;10.722;2023-05-02T07:03:30;12.60;1.40
14252;DHT22;7210;51.502;10.722;2023-05-02T07:05:58;12.70;1.00
14252;DHT22;7210;51.502;10.722;2023-05-02T07:08:25;12.70;1.00
14252;DHT22;7210;51.502;10.722;2023-05-02T07:10:53;12.70;1.00
14252;DHT22;7210;51.502;10.722;2023-05-02T07:13:20;12.80;1.00
14252;DHT22;7210;51.502;10.722;2023-05-02T07:15:47;13.00;1.00
14252;DHT22;7210;51.502;10.722;2023-05-02T07:18:15;13.00;1.00
14252;DHT22;7210;51.502;10.722;2023-05-02T07:20:42;13.10;1.00
14252;DHT22;7210;51.502;10.722;2023-05-02T07:23:09;13.10;1.00
14252;DHT22;7210;51.502;10.722;2023-05-02T07:25:36;13.10;1.00
14252;DHT22;7210;51.502;10.722;2023-05-02T07:28:06;13.10;1.00
14252;DHT22;7210;51.502;10.722;2023-05-02T07:30:33;13.00;1.00
14252;DHT22;7210;51.502;10.722;2023-05-02T07:33:01;12.80;1.00
14252;DHT22;7210;51.502;10.722;2023-05-02T07:35:28;12.80;1.00
14252;DHT22;7210;51.502;10.722;2023-05-02T07:37:55;12.80;1.00
14252;DHT22;7210;51.502;10.722;2023-05-02T07:40:22;13.00;1.00
14252;DHT22;7210;51.502;10.722;2023-05-02T07:42:49;13.20;1.00
14252;DHT22;7210;51.502;10.722;2023-05-02T07:45:18;13.40;1.00
14252;DHT22;7210;51.502;10.722;2023-05-02T07:47:45;13.60;1.00
14252;DHT22;7210;51.502;10.722;2023-05-02T07:50:12;13.60;1.00
14252;DHT22;7210;51.502;10.722;2023-05-02T07:52:40;13.50;1.00
14252;DHT22;7210;51.502;10.722;2023-05-02T07:55:07;13.40;1.00
14252;DHT22;7210;51.502;10.722;2023-05-02T07:57:35;13.30;1.00
14252;DHT22;7210;51.502;10.722;2023-05-02T08:00:03;13.10;1.00
14252;DHT22;7210;51.502;10.722;2023-05-02T08:02:41;13.10;1.00
14252;DHT22;7210;51.502;10.722;2023-05-02T08:05:09;13.00;1.00
14252;DHT22;7210;51.502;10.722;2023-05-02T08:07:37;13.20;1.00
14252;DHT22;7210;51.502;10.722;2023-05-02T08:10:05;13.20;1.00
14252;DHT22;7210;51.502;10.722;2023-05-02T08:12:37;13.30;1.00
14252;DHT22;7210;51.502;10.722;2023-05-02T08:15:06;13.30;1.00
14252;DHT22;7210;51.502;10.722;2023-05-02T08:17:34;13.30;1.00
14252;DHT22;7210;51.502;10.722;2023-05-02T08:20:04;13.30;1.00
14252;DHT22;7210;51.502;10.722;2023-05-02T08:22:32;13.40;1.00
14252;DHT22;7210;51.502;10.722;2023-05-02T08:24:59;13.60;1.00
14252;DHT22;7210;51.502;10.722;2023-05-02T08:27:26;13.80;1.00
14252;DHT22;7210;51.502;10.722;2023-05-02T08:29:54;13.80;1.00
14252;DHT22;7210;51.502;10.722;2023-05-02T08:32:21;13.90;1.00
14252;DHT22;7210;51.502;10.722;2023-05-02T08:34:48;13.90;1.00
14252;DHT22;7210;51.502;10.722;2023-05-02T08:37:16;13.90;1.00
14252;DHT22;7210;51.502;10.722;2023-05-02T08:39:44;14.00;1.00
14252;DHT22;7210;51.502;10.722;2023-05-02T08:42:11;14.10;1.00
14252;DHT22;7210;51.502;10.722;2023-05-02T08:44:38;14.30;1.00
14252;DHT22;7210;51.502;10.722;2023-05-02T08:47:09;14.60;1.00
14252;DHT22;7210;51.502;10.722;2023-05-02T08:49:41;14.60;1.00
14252;DHT22;7210;51.502;10.722;2023-05-02T08:52:08;14.60;1.00
14252;DHT22;7210;51.502;10.722;2023-05-02T08:54:38;14.50;1.00
14252;DHT22;7210;51.502;10.722;2023-05-02T08:57:07;14.70;1.00
14252;DHT22;7210;51.502;10.722;2023-05-02T08:59:34;14.60;1.00
14252;DHT22;7210;51.502;10.722;2023-05-02T09:02:16;14.70;1.00
14252;DHT22;7210;51.502;10.722;2023-05-02T09:05:02;14.80;1.00
14252;DHT22;7210;51.502;10.722;2023-05-02T09:07:44;14.90;1.00
14252;DHT22;7210;51.502;10.722;2023-05-02T09:10:13;14.50;1.00
14252;DHT22;7210;51.502;10.722;2023-05-02T09:12:41;14.40;1.00
14252;DHT22;7210;51.502;10.722;2023-05-02T09:15:10;14.20;1.00
14252;DHT22;7210;51.502;10.722;2023-05-02T09:17:40;13.80;1.00
14252;DHT22;7210;51.502;10.722;2023-05-02T09:20:09;13.40;1.00
14252;DHT22;7210;51.502;10.722;2023-05-02T09:22:37;13.00;1.00
14252;DHT22;7210;51.502;10.722;2023-05-02T09:25:05;12.90;1.00
14252;DHT22;7210;51.502;10.722;2023-05-02T09:27:50;12.80;1.00
14252;DHT22;7210;51.502;10.722;2023-05-02T09:30:20;12.70;99.90
14252;DHT22;7210;51.502;10.722;2023-05-02T09:32:49;12.70;99.90
14252;DHT22;7210;51.502;10.722;2023-05-02T09:35:20;12.70;99.90
14252;DHT22;7210;51.502;10.722;2023-05-02T09:37:53;12.70;99.90
14252;DHT22;7210;51.502;10.722;2023-05-02T09:40:22;12.70;99.90
14252;DHT22;7210;51.502;10.722;2023-05-02T09:42:51;12.70;99.90
14252;DHT22;7210;51.502;10.722;2023-05-02T09:45:22;12.80;99.90
14252;DHT22;7210;51.502;10.722;2023-05-02T09:47:51;12.90;99.90
14252;DHT22;7210;51.502;10.722;2023-05-02T09:50:34;13.00;99.90
14252;DHT22;7210;51.502;10.722;2023-05-02T09:53:06;13.30;1.00
14252;DHT22;7210;51.502;10.722;2023-05-02T09:55:36;13.20;1.00
14252;DHT22;7210;51.502;10.722;2023-05-02T09:58:19;12.90;1.00
14252;DHT22;7210;51.502;10.722;2023-05-02T10:00:49;12.80;99.90
14252;DHT22;7210;51.502;10.722;2023-05-02T10:03:18;12.60;99.90
14252;DHT22;7210;51.502;10.722;2023-05-02T10:05:46;12.60;99.90
14252;DHT22;7210;51.502;10.722;2023-05-02T10:08:13;12.50;99.90
14252;DHT22;7210;51.502;10.722;2023-05-02T10:10:46;12.60;99.90
14252;DHT22;7210;51.502;10.722;2023-05-02T10:13:19;12.70;99.90
14252;DHT22;7210;51.502;10.722;2023-05-02T10:15:53;12.70;99.90
14252;DHT22;7210;51.502;10.722;2023-05-02T10:18:32;12.70;99.90
14252;DHT22;7210;51.502;10.722;2023-05-02T10:21:08;12.50;99.90
14252;DHT22;7210;51.502;10.722;2023-05-02T10:23:40;12.60;99.90
14252;DHT22;7210;51.502;10.722;2023-05-02T10:26:14;12.40;99.90
14252;DHT22;7210;51.502;10.722;2023-05-02T10:28:43;12.40;99.90
14252;DHT22;7210;51.502;10.722;2023-05-02T10:31:12;12.20;99.90
14252;DHT22;7210;51.502;10.722;2023-05-02T10:33:40;12.20;99.90
14252;DHT22;7210;51.502;10.722;2023-05-02T10:36:09;12.30;99.90
14252;DHT22;7210;51.502;10.722;2023-05-02T10:38:38;12.50;99.90
14252;DHT22;7210;51.502;10.722;2023-05-02T10:41:11;12.80;99.90
14252;DHT22;7210;51.502;10.722;2023-05-02T10:43:44;13.10;1.00
14252;DHT22;7210;51.502;10.722;2023-05-02T10:46:29;13.20;1.00
14252;DHT22;7210;51.502;10.722;2023-05-02T10:49:01;13.30;1.00
14252;DHT22;7210;51.502;10.722;2023-05-02T10:51:31;13.40;1.00
14252;DHT22;7210;51.502;10.722;2023-05-02T10:54:18;13.60;1.00
14252;DHT22;7210;51.502;10.722;2023-05-02T10:57:03;13.80;1.00
14252;DHT22;7210;51.502;10.722;2023-05-02T10:59:35;13.90;1.00
14252;DHT22;7210;51.502;10.722;2023-05-02T11:05:20;13.80;1.00
14252;DHT22;7210;51.502;10.722;2023-05-02T11:07:48;13.70;1.00
14252;DHT22;7210;51.502;10.722;2023-05-02T11:10:26;13.70;1.00
14252;DHT22;7210;51.502;10.722;2023-05-02T11:12:55;13.60;1.00
14252;DHT22;7210;51.502;10.722;2023-05-02T11:15:54;13.90;1.00
14252;DHT22;7210;51.502;10.722;2023-05-02T11:18:24;14.20;1.00
14252;DHT22;7210;51.502;10.722;2023-05-02T11:21:26;14.40;1.00
14252;DHT22;7210;51.502;10.722;2023-05-02T11:27:36;14.20;1.00
14252;DHT22;7210;51.502;10.722;2023-05-02T11:30:05;14.40;1.00
14252;DHT22;7210;51.502;10.722;2023-05-02T11:33:11;14.60;1.00
14252;DHT22;7210;51.502;10.722;2023-05-02T11:35:46;14.80;1.00
14252;DHT22;7210;51.502;10.722;2023-05-02T11:38:16;15.10;1.00
14252;DHT22;7210;51.502;10.722;2023-05-02T11:40:55;15.10;1.00
14252;DHT22;7210;51.502;10.722;2023-05-02T11:43:25;15.30;1.00
14252;DHT22;7210;51.502;10.722;2023-05-02T11:45:54;15.20;1.00
14252;DHT22;7210;51.502;10.722;2023-05-02T11:48:26;15.30;1.00
14252;DHT22;7210;51.502;10.722;2023-05-02T11:50:55;15.30;1.00
14252;DHT22;7210;51.502;10.722;2023-05-02T11:53:24;15.20;1.00
14252;DHT22;7210;51.502;10.722;2023-05-02T11:55:55;15.10;1.00
14252;DHT22;7210;51.502;10.722;2023-05-02T11:58:25;15.30;1.00
14252;DHT22;7210;51.502;10.722;2023-05-02T12:00:54;15.60;1.00
14252;DHT22;7210;51.502;10.722;2023-05-02T12:03:25;15.70;1.00
14252;DHT22;7210;51.502;10.722;2023-05-02T12:05:54;15.50;1.00
14252;DHT22;7210;51.502;10.722;2023-05-02T12:08:23;15.50;1.00
14252;DHT22;7210;51.502;10.722;2023-05-02T12:10:53;15.40;1.00
14252;DHT22;7210;51.502;10.722;2023-05-02T12:13:22;15.40;1.00
14252;DHT22;7210;51.502;10.722;2023-05-02T12:15:53;15.50;1.00
14252;DHT22;7210;51.502;10.722;2023-05-02T12:18:22;15.60;1.00
14252;DHT22;7210;51.502;10.722;2023-05-02T12:20:54;15.70;1.00
14252;DHT22;7210;51.502;10.722;2023-05-02T12:23:24;15.50;1.00
14252;DHT22;7210;51.502;10.722;2023-05-02T12:25:52;15.50;1.00
14252;DHT22;7210;51.502;10.722;2023-05-02T12:28:19;15.50;1.00
14252;DHT22;7210;51.502;10.722;2023-05-02T12:30:49;15.30;1.00
14252;DHT22;7210;51.502;10.722;2023-05-02T12:33:17;14.90;1.00
14252;DHT22;7210;51.502;10.722;2023-05-02T12:35:45;15.10;1.00
14252;DHT22;7210;51.502;10.722;2023-05-02T12:38:16;15.10;1.00
14252;DHT22;7210;51.502;10.722;2023-05-02T12:40:50;15.00;1.00
14252;DHT22;7210;51.502;10.722;2023-05-02T12:43:19;14.80;1.00
14252;DHT22;7210;51.502;10.722;2023-05-02T12:45:46;14.80;1.00
14252;DHT22;7210;51.502;10.722;2023-05-02T12:48:22;14.80;1.00
14252;DHT22;7210;51.502;10.722;2023-05-02T12:50:50;15.10;1.00
14252;DHT22;7210;51.502;10.722;2023-05-02T12:53:40;15.20;1.00
14252;DHT22;7210;51.502;10.722;2023-05-02T12:56:09;15.50;1.00
14252;DHT22;7210;51.502;10.722;2023-05-02T12:58:40;15.50;1.00
14252;DHT22;7210;51.502;10.722;2023-05-02T13:01:09;15.30;1.00
14252;DHT22;7210;51.502;10.722;2023-05-02T13:03:36;15.00;1.00
14252;DHT22;7210;51.502;10.722;2023-05-02T13:06:05;14.90;1.00
14252;DHT22;7210;51.502;10.722;2023-05-02T13:08:32;14.50;1.00
14252;DHT22;7210;51.502;10.722;2023-05-02T13:11:02;14.30;1.00
14252;DHT22;7210;51.502;10.722;2023-05-02T13:13:30;14.10;1.00
14252;DHT22;7210;51.502;10.722;2023-05-02T13:15:59;14.00;1.00
14252;DHT22;7210;51.502;10.722;2023-05-02T13:18:26;13.90;1.00
14252;DHT22;7210;51.502;10.722;2023-05-02T13:20:54;14.00;1.00
14252;DHT22;7210;51.502;10.722;2023-05-02T13:23:21;13.80;1.00
14252;DHT22;7210;51.502;10.722;2023-05-02T13:25:48;13.60;1.00
14252;DHT22;7210;51.502;10.722;2023-05-02T13:28:16;13.60;1.00
14252;DHT22;7210;51.502;10.722;2023-05-02T13:30:44;13.80;1.00
14252;DHT22;7210;51.502;10.722;2023-05-02T13:33:11;14.00;1.00
14252;DHT22;7210;51.502;10.722;2023-05-02T13:35:38;13.80;1.00
14252;DHT22;7210;51.502;10.722;2023-05-02T13:38:05;14.00;1.00
14252;DHT22;7210;51.502;10.722;2023-05-02T13:40:32;14.00;1.00
14252;DHT22;7210;51.502;10.722;2023-05-02T13:42:59;13.90;1.00
14252;DHT22;7210;51.502;10.722;2023-05-02T13:45:28;13.70;1.00
14252;DHT22;7210;51.502;10.722;2023-05-02T13:47:55;13.50;1.00
14252;DHT22;7210;51.502;10.722;2023-05-02T13:50:22;13.40;1.00
14252;DHT22;7210;51.502;10.722;2023-05-02T13:52:49;13.20;1.00
14252;DHT22;7210;51.502;10.722;2023-05-02T13:55:16;13.20;1.00
14252;DHT22;7210;51.502;10.722;2023-05-02T13:57:44;13.30;1.00
14252;DHT22;7210;51.502;10.722;2023-05-02T14:00:12;13.30;1.00
14252;DHT22;7210;51.502;10.722;2023-05-02T14:02:42;13.10;1.00
14252;DHT22;7210;51.502;10.722;2023-05-02T14:05:12;12.90;1.00
14252;DHT22;7210;51.502;10.722;2023-05-02T14:07:39;12.80;1.00
14252;DHT22;7210;51.502;10.722;2023-05-02T14:10:07;12.90;1.00
14252;DHT22;7210;51.502;10.722;2023-05-02T14:12:35;13.00;1.00
14252;DHT22;7210;51.502;10.722;2023-05-02T14:15:02;13.10;1.00
14252;DHT22;7210;51.502;10.722;2023-05-02T14:17:30;13.10;1.00
14252;DHT22;7210;51.502;10.722;2023-05-02T14:19:58;13.10;1.00
14252;DHT22;7210;51.502;10.722;2023-05-02T14:22:26;13.00;1.00
14252;DHT22;7210;51.502;10.722;2023-05-02T14:24:53;12.70;1.00
14252;DHT22;7210;51.502;10.722;2023-05-02T14:27:20;12.40;1.00
14252;DHT22;7210;51.502;10.722;2023-05-02T14:29:47;12.40;1.00
14252;DHT22;7210;51.502;10.722;2023-05-02T14:32:15;12.60;1.00
14252;DHT22;7210;51.502;10.722;2023-05-02T14:34:42;12.70;1.00
14252;DHT22;7210;51.502;10.722;2023-05-02T14:37:11;13.00;1.00
14252;DHT22;7210;51.502;10.722;2023-05-02T14:39:38;13.20;1.00
14252;DHT22;7210;51.502;10.722;2023-05-02T14:42:07;13.20;1.00
14252;DHT22;7210;51.502;10.722;2023-05-02T14:44:34;12.90;1.00
14252;DHT22;7210;51.502;10.722;2023-05-02T14:47:01;13.00;1.00
14252;DHT22;7210;51.502;10.722;2023-05-02T14:49:28;12.90;1.00
14252;DHT22;7210;51.502;10.722;2023-05-02T14:51:55;12.90;1.00
14252;DHT22;7210;51.502;10.722;2023-05-02T14:54:26;13.20;1.00
14252;DHT22;7210;51.502;10.722;2023-05-02T14:56:54;13.60;1.00
14252;DHT22;7210;51.502;10.722;2023-05-02T14:59:21;13.60;1.00
14252;DHT22;7210;51.502;10.722;2023-05-02T15:01:50;13.60;1.00
14252;DHT22;7210;51.502;10.722;2023-05-02T15:04:18;13.70;1.00
14252;DHT22;7210;51.502;10.722;2023-05-02T15:06:45;13.70;1.00
14252;DHT22;7210;51.502;10.722;2023-05-02T15:09:13;13.60;1.00
14252;DHT22;7210;51.502;10.722;2023-05-02T15:11:42;13.60;1.00
14252;DHT22;7210;51.502;10.722;2023-05-02T15:14:10;13.50;1.00
14252;DHT22;7210;51.502;10.722;2023-05-02T15:16:37;13.20;1.00
14252;DHT22;7210;51.502;10.722;2023-05-02T15:19:04;12.70;1.00
14252;DHT22;7210;51.502;10.722;2023-05-02T15:21:31;12.50;1.00
14252;DHT22;7210;51.502;10.722;2023-05-02T15:23:59;12.30;1.00
14252;DHT22;7210;51.502;10.722;2023-05-02T15:26:27;12.30;1.00
14252;DHT22;7210;51.502;10.722;2023-05-02T15:28:55;12.20;1.00
14252;DHT22;7210;51.502;10.722;2023-05-02T15:31:23;12.10;1.00
14252;DHT22;7210;51.502;10.722;2023-05-02T15:33:50;12.00;1.00
14252;DHT22;7210;51.502;10.722;2023-05-02T15:36:17;11.90;1.00
14252;DHT22;7210;51.502;10.722;2023-05-02T15:38:44;12.10;1.00
14252;DHT22;7210;51.502;10.722;2023-05-02T15:41:12;12.20;1.00
14252;DHT22;7210;51.502;10.722;2023-05-02T15:43:39;12.20;1.00
14252;DHT22;7210;51.502;10.722;2023-05-02T15:46:07;12.10;1.00
14252;DHT22;7210;51.502;10.722;2023-05-02T15:48:35;12.10;1.00
14252;DHT22;7210;51.502;10.722;2023-05-02T15:51:03;12.10;1.00
14252;DHT22;7210;51.502;10.722;2023-05-02T15:53:31;12.10;1.00
14252;DHT22;7210;51.502;10.722;2023-05-02T15:56:00;12.00;1.00
14252;DHT22;7210;51.502;10.722;2023-05-02T15:58:27;12.00;1.00
14252;DHT22;7210;51.502;10.722;2023-05-02T16:00:54;11.90;1.00
14252;DHT22;7210;51.502;10.722;2023-05-02T16:03:22;11.80;1.00
14252;DHT22;7210;51.502;10.722;2023-05-02T16:05:51;11.60;1.00
14252;DHT22;7210;51.502;10.722;2023-05-02T16:08:19;11.70;1.00
14252;DHT22;7210;51.502;10.722;2023-05-02T16:10:46;11.60;1.00